Time;durP1;ratioP1;P1;durP2;ratioP2;P2;SDS_P1;SDS_P2;PMS_P1;PMS_P2;Temp;Humidity;BMP_temperature;BMP_pressure;BME280_temperature;BME280_humidity;BME280_pressure;Samples;Min_cycle;Max_cycle;Signal;HPM_P1;HPM_P2
2022/05/14 00:00:21;;;;;;;2.38;1.83;;;13.90;63.50;;;;;;5038386;28;20029;-62
2022/05/14 00:02:48;;;;;;;2.00;1.73;;;13.80;63.40;;;;;;5037784;28;20033;-62
2022/05/14 00:05:14;;;;;;;5.45;1.50;;;13.80;63.20;;;;;;5037170;28;20477;-62
2022/05/14 00:07:40;;;;;;;5.53;1.80;;;13.80;62.90;;;;;;5037588;28;20033;-62
2022/05/14 00:10:07;;;;;;;3.80;1.85;;;13.80;63.40;;;;;;5037450;28;20025;-62
2022/05/14 00:15:17;;;;;;;4.32;2.00;;;13.80;63.70;;;;;;5037499;28;20033;-62
2022/05/14 00:17:44;;;;;;;3.75;1.67;;;13.80;63.20;;;;;;5037593;28;20025;-62
2022/05/14 00:20:12;;;;;;;4.22;1.55;;;13.80;63.70;;;;;;5037042;28;20029;-62
2022/05/14 00:22:38;;;;;;;3.78;1.60;;;13.80;63.20;;;;;;5037295;28;20374;-62
2022/05/14 00:25:05;;;;;;;3.53;1.60;;;13.70;63.50;;;;;;5037453;28;20031;-61
2022/05/14 00:27:30;;;;;;;3.83;1.80;;;13.70;63.30;;;;;;5037391;28;20032;-62
2022/05/14 00:29:57;;;;;;;3.35;1.63;;;13.70;63.80;;;;;;5037167;28;20029;-61
2022/05/14 00:32:23;;;;;;;4.90;1.95;;;13.70;63.80;;;;;;5037451;28;20053;-62
2022/05/14 00:34:48;;;;;;;3.35;1.60;;;13.70;63.80;;;;;;5037168;28;20037;-62
2022/05/14 00:37:14;;;;;;;3.78;2.00;;;13.70;63.60;;;;;;5037285;28;20057;-62
2022/05/14 00:39:40;;;;;;;4.43;1.90;;;13.60;64.30;;;;;;5037148;28;20501;-62
2022/05/14 00:42:06;;;;;;;3.47;1.75;;;13.70;64.50;;;;;;5037160;28;20024;-62
2022/05/14 00:44:32;;;;;;;4.15;1.80;;;13.60;64.90;;;;;;5037115;28;20087;-62
2022/05/14 00:47:03;;;;;;;4.28;1.88;;;13.60;64.70;;;;;;5037264;28;20021;-61
2022/05/14 00:49:31;;;;;;;5.75;1.90;;;13.70;63.90;;;;;;5037062;28;20037;-62
2022/05/14 00:51:59;;;;;;;3.55;1.70;;;13.70;64.30;;;;;;5037208;28;20393;-62
2022/05/14 00:54:36;;;;;;;4.45;1.80;;;13.70;64.70;;;;;;5037079;28;20569;-62
2022/05/14 00:57:07;;;;;;;3.70;2.13;;;13.70;64.40;;;;;;5037166;28;20481;-62
2022/05/14 00:59:33;;;;;;;5.78;2.08;;;13.70;64.50;;;;;;5037223;28;20026;-62
2022/05/14 01:01:59;;;;;;;7.97;2.15;;;13.80;64.00;;;;;;5036957;28;20109;-62
2022/05/14 01:04:26;;;;;;;3.95;1.98;;;13.80;64.20;;;;;;5037063;28;20029;-62
2022/05/14 01:06:55;;;;;;;4.07;1.67;;;13.80;64.50;;;;;;5035650;28;20022;-62
2022/05/14 01:09:21;;;;;;;3.80;1.80;;;13.80;64.30;;;;;;5037121;28;20032;-62
2022/05/14 01:11:50;;;;;;;5.50;2.03;;;13.80;64.70;;;;;;5037090;28;20025;-61
2022/05/14 01:14:16;;;;;;;3.70;1.88;;;13.70;64.20;;;;;;5036951;28;20472;-62
2022/05/14 01:16:42;;;;;;;4.82;1.95;;;13.70;64.00;;;;;;5035362;28;20116;-62
2022/05/14 01:19:10;;;;;;;6.25;2.17;;;13.70;65.20;;;;;;5036774;28;20057;-61
2022/05/14 01:21:58;;;;;;;4.72;2.25;;;13.60;65.20;;;;;;5036999;28;20369;-62
2022/05/14 01:27:20;;;;;;;4.75;1.83;;;13.60;64.60;;;;;;5037225;28;20495;-61
2022/05/14 01:29:46;;;;;;;4.00;1.92;;;13.50;64.90;;;;;;5035976;28;20108;-61
2022/05/14 01:32:12;;;;;;;5.22;1.73;;;13.40;65.40;;;;;;5037200;28;20045;-61
2022/05/14 01:34:38;;;;;;;4.78;2.00;;;13.40;64.70;;;;;;5040478;28;20481;-62
2022/05/14 01:37:05;;;;;;;4.65;1.90;;;13.40;64.40;;;;;;5040272;28;20481;-62
2022/05/14 01:39:31;;;;;;;3.95;1.98;;;13.30;64.80;;;;;;5040151;28;20021;-62
2022/05/14 01:41:57;;;;;;;5.53;2.00;;;13.30;64.50;;;;;;5040590;28;20018;-61
2022/05/14 01:44:23;;;;;;;3.78;1.80;;;13.20;65.00;;;;;;5040211;28;20025;-61
2022/05/14 01:46:49;;;;;;;4.07;1.90;;;13.20;66.10;;;;;;5040269;28;20049;-61
2022/05/14 01:49:15;;;;;;;3.20;1.75;;;13.10;65.50;;;;;;5040151;28;20049;-61
2022/05/14 01:51:41;;;;;;;4.38;2.08;;;13.00;66.00;;;;;;5040163;28;20385;-61
2022/05/14 01:54:06;;;;;;;3.58;1.77;;;13.00;64.90;;;;;;5038381;28;20061;-61
2022/05/14 01:56:32;;;;;;;6.30;2.10;;;13.00;65.80;;;;;;5040005;28;20052;-61
2022/05/14 01:58:58;;;;;;;5.05;1.58;;;13.00;65.30;;;;;;5039835;28;20096;-61
2022/05/14 02:01:25;;;;;;;3.63;1.85;;;12.90;66.30;;;;;;5039727;28;20095;-61
2022/05/14 02:03:58;;;;;;;5.97;2.28;;;12.90;66.30;;;;;;5039995;28;20017;-61
2022/05/14 02:06:25;;;;;;;4.43;2.10;;;12.90;65.60;;;;;;5039653;28;20021;-61
2022/05/14 02:08:51;;;;;;;2.90;1.77;;;13.00;65.80;;;;;;5038353;28;20469;-61
2022/05/14 02:11:18;;;;;;;3.95;1.80;;;13.00;66.50;;;;;;5039556;28;20022;-61
2022/05/14 02:13:45;;;;;;;4.30;1.80;;;13.00;66.10;;;;;;5039522;28;20061;-61
2022/05/14 02:16:10;;;;;;;3.90;2.00;;;13.00;65.80;;;;;;5038525;28;20022;-61
2022/05/14 02:18:37;;;;;;;6.57;2.17;;;13.00;66.70;;;;;;5039398;28;20030;-61
2022/05/14 02:21:04;;;;;;;3.63;1.92;;;13.00;67.00;;;;;;5039383;28;20029;-61
2022/05/14 02:23:31;;;;;;;4.28;2.10;;;13.00;66.70;;;;;;5039688;28;20045;-61
2022/05/14 02:25:57;;;;;;;4.20;2.25;;;12.90;66.20;;;;;;5039330;28;20032;-61
2022/05/14 02:28:23;;;;;;;3.65;2.03;;;12.90;66.30;;;;;;5039327;28;20053;-61
2022/05/14 02:30:49;;;;;;;6.47;2.08;;;12.90;65.80;;;;;;5039612;28;20026;-62
2022/05/14 02:33:15;;;;;;;6.25;1.92;;;12.90;66.80;;;;;;5039302;28;20032;-61
2022/05/14 02:35:42;;;;;;;6.50;2.00;;;12.90;66.00;;;;;;5039308;28;20083;-61
2022/05/14 02:38:08;;;;;;;4.25;1.73;;;12.90;65.90;;;;;;5039039;28;20022;-61
2022/05/14 02:40:34;;;;;;;3.35;1.80;;;12.90;66.90;;;;;;5039450;28;20034;-61
2022/05/14 02:43:00;;;;;;;4.22;2.03;;;12.90;66.30;;;;;;5038968;28;20025;-61
2022/05/14 02:45:26;;;;;;;4.38;2.35;;;12.90;66.00;;;;;;5038876;28;20121;-61
2022/05/14 02:47:52;;;;;;;5.65;2.00;;;13.00;65.90;;;;;;5038847;28;20032;-61
2022/05/14 02:50:18;;;;;;;4.72;1.80;;;13.00;66.50;;;;;;5039273;28;20512;-61
2022/05/14 02:52:44;;;;;;;5.93;2.13;;;12.90;66.40;;;;;;5038823;28;20509;-61
2022/05/14 02:55:11;;;;;;;2.70;1.77;;;12.90;66.50;;;;;;5038696;28;20054;-61
2022/05/14 02:57:37;;;;;;;4.95;2.20;;;12.90;66.30;;;;;;5038788;28;20057;-61
2022/05/14 03:00:05;;;;;;;5.50;1.80;;;12.80;66.80;;;;;;5038680;28;20025;-61
2022/05/14 03:02:31;;;;;;;6.55;2.50;;;12.90;66.30;;;;;;5038554;28;20049;-61
2022/05/14 03:04:57;;;;;;;6.35;2.10;;;12.80;66.50;;;;;;5038645;28;20059;-61
2022/05/14 03:07:22;;;;;;;5.50;2.00;;;12.80;67.20;;;;;;5038502;28;20040;-61
2022/05/14 03:09:48;;;;;;;5.03;2.05;;;12.70;67.50;;;;;;5038608;28;20101;-61
2022/05/14 03:12:16;;;;;;;4.15;2.10;;;12.70;68.00;;;;;;5038730;28;20041;-61
2022/05/14 03:14:42;;;;;;;5.22;2.10;;;12.70;67.30;;;;;;5038384;28;20037;-61
2022/05/14 03:17:08;;;;;;;5.82;1.90;;;12.70;68.10;;;;;;5038661;28;20469;-61
2022/05/14 03:19:34;;;;;;;3.35;1.83;;;12.70;68.00;;;;;;5038467;28;20025;-61
2022/05/14 03:22:01;;;;;;;7.63;1.77;;;12.70;68.10;;;;;;5038377;28;20503;-62
2022/05/14 03:24:27;;;;;;;5.32;1.90;;;12.70;67.50;;;;;;5038455;28;20021;-61
2022/05/14 03:26:53;;;;;;;5.70;2.35;;;12.70;67.10;;;;;;5038226;28;20025;-61
2022/05/14 03:29:19;;;;;;;6.32;2.30;;;12.70;68.20;;;;;;5038406;28;20444;-61
2022/05/14 03:31:45;;;;;;;6.85;2.72;;;12.70;67.40;;;;;;5038058;28;20362;-61
2022/05/14 03:34:11;;;;;;;5.90;2.15;;;12.70;68.30;;;;;;5038076;28;20029;-61
2022/05/14 03:36:39;;;;;;;7.18;2.10;;;12.70;67.60;;;;;;5037921;28;20446;-61
2022/05/14 03:39:05;;;;;;;3.55;2.03;;;12.70;67.30;;;;;;5038175;28;20025;-61
2022/05/14 03:41:30;;;;;;;6.70;2.15;;;12.70;67.00;;;;;;5038150;28;20388;-61
2022/05/14 03:43:57;;;;;;;6.95;2.30;;;12.70;67.70;;;;;;5037817;28;20022;-61
2022/05/14 03:46:23;;;;;;;5.57;2.15;;;12.70;67.20;;;;;;5036343;28;20400;-61
2022/05/14 03:48:48;;;;;;;3.95;2.05;;;12.70;67.90;;;;;;5037911;28;20034;-61
2022/05/14 03:51:14;;;;;;;6.50;2.53;;;12.70;67.30;;;;;;5037883;28;20097;-61
2022/05/14 03:53:41;;;;;;;4.10;2.00;;;12.70;67.30;;;;;;5038064;28;20029;-61
2022/05/14 03:56:07;;;;;;;5.75;2.15;;;12.70;67.90;;;;;;5035540;28;20041;-61
2022/05/14 03:58:34;;;;;;;5.70;2.20;;;12.70;67.90;;;;;;5037718;28;20033;-61
2022/05/14 04:00:59;;;;;;;5.47;2.10;;;12.70;67.20;;;;;;5037622;28;20049;-61
2022/05/14 04:03:25;;;;;;;6.30;2.67;;;12.70;67.90;;;;;;5037544;28;20029;-61
2022/05/14 04:05:51;;;;;;;7.75;1.90;;;12.70;67.70;;;;;;5037585;28;20017;-61
2022/05/14 04:08:17;;;;;;;6.80;1.90;;;12.70;67.50;;;;;;5037691;28;20026;-61
2022/05/14 04:10:44;;;;;;;3.50;1.73;;;12.60;67.30;;;;;;5037648;28;20021;-61
2022/05/14 04:13:12;;;;;;;5.88;2.10;;;12.60;68.90;;;;;;5037402;28;20033;-61
2022/05/14 04:15:38;;;;;;;6.45;2.17;;;12.60;67.50;;;;;;5037268;28;20029;-61
2022/05/14 04:18:04;;;;;;;7.18;2.05;;;12.60;67.90;;;;;;5037452;28;20087;-61
2022/05/14 04:20:30;;;;;;;5.50;2.10;;;12.60;67.50;;;;;;5036161;28;20489;-61
2022/05/14 04:22:56;;;;;;;5.70;2.13;;;12.50;68.00;;;;;;5037536;28;20091;-61
2022/05/14 04:25:23;;;;;;;7.55;2.03;;;12.40;68.20;;;;;;5037718;28;20082;-61
2022/05/14 04:27:49;;;;;;;5.38;2.30;;;12.40;68.90;;;;;;5037300;28;20026;-61
2022/05/14 04:30:16;;;;;;;5.00;2.10;;;12.40;68.30;;;;;;5037158;28;20497;-61
2022/05/14 04:32:43;;;;;;;6.93;2.40;;;12.40;69.00;;;;;;5035846;28;20448;-61
2022/05/14 04:35:10;;;;;;;6.28;2.55;;;12.40;67.80;;;;;;5037433;28;20045;-61
2022/05/14 04:37:36;;;;;;;5.10;2.10;;;12.40;68.30;;;;;;5037383;28;20039;-61
2022/05/14 04:40:04;;;;;;;4.55;2.00;;;12.40;68.50;;;;;;5037385;28;20021;-61
2022/05/14 04:42:30;;;;;;;4.90;2.20;;;12.40;68.60;;;;;;5037277;28;20021;-61
2022/05/14 04:44:56;;;;;;;5.50;2.00;;;12.40;68.40;;;;;;5037104;28;20477;-61
2022/05/14 04:47:22;;;;;;;5.80;2.40;;;12.40;68.90;;;;;;5037332;28;20377;-61
2022/05/14 04:49:49;;;;;;;6.80;2.40;;;12.40;68.90;;;;;;5037113;28;20045;-61
2022/05/14 04:52:15;;;;;;;6.00;2.28;;;12.40;68.20;;;;;;5037113;28;20413;-61
2022/05/14 04:54:41;;;;;;;5.18;2.10;;;12.40;68.80;;;;;;5036884;28;20045;-61
2022/05/14 04:57:08;;;;;;;4.93;2.45;;;12.40;68.60;;;;;;5036759;28;20029;-61
2022/05/14 04:59:34;;;;;;;4.38;2.63;;;12.40;69.20;;;;;;5037104;28;20025;-61
2022/05/14 05:04:45;;;;;;;5.22;2.00;;;12.50;69.10;;;;;;5037338;28;20402;-61
2022/05/14 05:07:11;;;;;;;5.78;2.05;;;12.40;68.60;;;;;;5039111;28;20072;-61
2022/05/14 05:09:37;;;;;;;4.55;2.15;;;12.50;69.00;;;;;;5040864;28;20026;-61
2022/05/14 05:12:04;;;;;;;6.57;2.10;;;12.40;68.90;;;;;;5040769;28;20469;-61
2022/05/14 05:14:30;;;;;;;5.35;2.03;;;12.50;67.90;;;;;;5040792;28;20435;-61
2022/05/14 05:16:57;;;;;;;6.63;2.40;;;12.50;68.50;;;;;;5040724;28;20021;-61
2022/05/14 05:19:23;;;;;;;6.43;4.38;;;12.50;68.40;;;;;;5040544;28;20397;-61
2022/05/14 05:21:50;;;;;;;5.68;3.88;;;12.50;69.30;;;;;;5040519;28;20105;-61
2022/05/14 05:24:16;;;;;;;6.60;3.45;;;12.60;70.30;;;;;;5039797;28;20009;-61
2022/05/14 05:26:42;;;;;;;9.02;2.63;;;12.60;69.80;;;;;;5039716;28;20029;-61
2022/05/14 05:29:08;;;;;;;4.78;1.90;;;12.70;68.80;;;;;;5039716;28;20014;-61
2022/05/14 05:31:35;;;;;;;7.57;2.20;;;12.70;68.80;;;;;;5039048;28;20022;-61
2022/05/14 05:34:02;;;;;;;5.05;2.03;;;12.70;68.30;;;;;;5038009;28;20105;-61
2022/05/14 05:36:28;;;;;;;5.72;2.10;;;12.70;68.40;;;;;;5039480;28;20060;-61
2022/05/14 05:38:54;;;;;;;8.55;2.25;;;12.70;68.50;;;;;;5039366;28;20029;-61
2022/05/14 05:41:21;;;;;;;5.82;1.90;;;12.70;67.70;;;;;;5039185;28;20044;-61
2022/05/14 05:43:47;;;;;;;4.45;2.15;;;12.60;68.00;;;;;;5039378;28;20022;-61
2022/05/14 05:46:14;;;;;;;5.47;2.00;;;12.60;68.20;;;;;;5039301;28;20025;-61
2022/05/14 05:48:41;;;;;;;6.47;2.13;;;12.70;68.50;;;;;;5038680;28;20121;-61
2022/05/14 05:51:07;;;;;;;4.07;1.85;;;12.60;68.50;;;;;;5039410;28;20084;-61
2022/05/14 05:59:03;;;;;;;4.25;2.00;;;12.70;68.20;;;;;;5039924;28;20117;-61
2022/05/14 06:01:29;;;;;;;4.20;1.90;;;12.70;68.00;;;;;;5039669;28;20109;-61
2022/05/14 06:03:55;;;;;;;4.70;1.63;;;12.80;68.00;;;;;;5039654;28;20045;-61
2022/05/14 06:06:21;;;;;;;8.00;2.22;;;12.80;67.90;;;;;;5039363;28;20056;-61
2022/05/14 06:08:50;;;;;;;5.50;1.90;;;12.80;67.80;;;;;;5039822;28;20036;-61
2022/05/14 06:11:17;;;;;;;7.28;2.30;;;12.90;68.40;;;;;;5039440;28;20424;-61
2022/05/14 06:13:44;;;;;;;7.55;2.05;;;13.00;67.70;;;;;;5039796;28;20025;-61
2022/05/14 06:16:14;;;;;;;6.00;2.00;;;13.00;67.70;;;;;;5039868;28;20417;-61
2022/05/14 06:18:42;;;;;;;8.23;2.50;;;13.10;67.40;;;;;;5038862;28;20033;-61
2022/05/14 06:21:09;;;;;;;6.10;2.10;;;13.20;67.70;;;;;;5039374;28;20540;-61
2022/05/14 06:23:35;;;;;;;4.28;1.67;;;13.30;67.40;;;;;;5039239;28;20025;-61
2022/05/14 06:26:01;;;;;;;4.97;1.83;;;13.30;67.10;;;;;;5039306;28;20021;-61
2022/05/14 06:28:27;;;;;;;8.07;1.98;;;13.40;66.90;;;;;;5039424;28;20030;-61
2022/05/14 06:30:53;;;;;;;4.93;2.03;;;13.40;66.90;;;;;;5039116;28;20026;-61
2022/05/14 06:33:19;;;;;;;4.68;1.73;;;13.50;66.60;;;;;;5039282;28;20025;-61
2022/05/14 06:35:46;;;;;;;4.05;1.90;;;13.50;66.80;;;;;;5039043;28;20033;-61
2022/05/14 06:38:13;;;;;;;5.97;1.90;;;13.50;66.70;;;;;;5038719;28;20029;-61
2022/05/14 06:40:40;;;;;;;3.60;1.80;;;13.50;66.50;;;;;;5038460;28;20029;-62
2022/05/14 06:43:06;;;;;;;5.53;2.15;;;13.60;66.50;;;;;;5038187;28;20389;-61
2022/05/14 06:45:32;;;;;;;4.72;1.70;;;13.60;66.40;;;;;;5038171;28;20032;-61
2022/05/14 06:47:59;;;;;;;4.88;1.85;;;13.60;66.70;;;;;;5038120;28;20029;-61
2022/05/14 06:50:30;;;;;;;4.75;1.73;;;13.70;66.60;;;;;;5038411;28;20033;-61
2022/05/14 06:53:01;;;;;;;4.70;1.92;;;13.70;66.60;;;;;;5039097;28;20029;-61
2022/05/14 06:55:34;;;;;;;6.55;2.10;;;13.70;66.40;;;;;;5038535;28;20053;-61
2022/05/14 06:58:00;;;;;;;5.47;1.88;;;13.80;66.60;;;;;;5038123;28;20552;-62
2022/05/14 07:00:27;;;;;;;4.85;1.80;;;13.80;66.50;;;;;;5037931;28;20455;-61
2022/05/14 07:06:37;;;;;;;5.13;1.73;;;13.90;66.30;;;;;;5038611;28;20416;-61
2022/05/14 07:08:23;;;;;;;4.38;1.70;;;14.10;66.10;;;;;;5038341;28;20036;-61
2022/05/14 07:10:49;;;;;;;3.72;1.80;;;14.10;66.20;;;;;;5038414;28;20033;-61
2022/05/14 07:13:15;;;;;;;5.63;2.13;;;14.20;66.30;;;;;;5038149;28;20022;-61
2022/05/14 07:15:40;;;;;;;6.22;1.80;;;14.30;66.70;;;;;;5037834;28;20103;-61
2022/05/14 07:18:06;;;;;;;4.32;1.88;;;14.40;66.80;;;;;;5038135;28;20025;-61
2022/05/14 07:20:32;;;;;;;3.85;1.98;;;14.50;67.20;;;;;;5038328;28;20033;-61
2022/05/14 07:22:58;;;;;;;2.78;1.88;;;14.70;66.10;;;;;;5037548;28;20025;-61
2022/05/14 07:25:24;;;;;;;3.42;1.52;;;14.80;66.10;;;;;;5036854;28;20398;-62
2022/05/14 07:27:50;;;;;;;4.90;1.73;;;14.90;65.50;;;;;;5035995;28;20064;-62
2022/05/14 07:30:16;;;;;;;5.50;1.95;;;14.90;65.70;;;;;;5036996;28;20034;-62
2022/05/14 07:32:42;;;;;;;4.35;1.92;;;15.00;65.80;;;;;;5037710;28;20026;-62
2022/05/14 07:35:08;;;;;;;4.47;1.77;;;15.10;65.60;;;;;;5038097;28;20539;-62
2022/05/14 07:37:39;;;;;;;3.47;1.70;;;15.20;65.30;;;;;;5038108;28;20090;-62
2022/05/14 07:40:09;;;;;;;2.85;1.90;;;15.30;65.50;;;;;;5037829;28;20026;-62
2022/05/14 07:42:54;;;;;;;3.78;1.73;;;15.40;65.90;;;;;;5037703;28;20528;-62
2022/05/14 07:45:28;;;;;;;5.22;1.83;;;15.50;65.50;;;;;;5037061;28;20041;-62
2022/05/14 07:47:56;;;;;;;5.32;1.80;;;15.60;65.00;;;;;;5036804;28;20021;-62
2022/05/14 07:50:23;;;;;;;5.80;2.13;;;15.70;65.50;;;;;;5035298;28;20033;-62
2022/05/14 07:52:51;;;;;;;4.10;1.80;;;15.80;65.60;;;;;;5036088;28;20023;-62
2022/05/14 07:55:17;;;;;;;3.53;1.77;;;15.90;65.30;;;;;;5036297;28;20057;-62
2022/05/14 07:57:43;;;;;;;5.93;1.80;;;16.00;65.40;;;;;;5036977;28;20036;-62
2022/05/14 08:00:11;;;;;;;3.40;1.80;;;16.00;65.30;;;;;;5036989;28;20069;-62
2022/05/14 08:02:37;;;;;;;5.43;1.88;;;16.20;65.20;;;;;;5035832;28;20028;-62
2022/05/14 08:05:08;;;;;;;5.65;1.90;;;16.20;64.90;;;;;;5037260;28;20029;-62
2022/05/14 08:07:34;;;;;;;3.33;1.70;;;16.30;64.50;;;;;;5037555;28;20029;-62
2022/05/14 08:10:00;;;;;;;5.43;1.95;;;16.40;64.90;;;;;;5037463;28;20108;-62
2022/05/14 08:12:32;;;;;;;6.05;1.88;;;16.50;64.10;;;;;;5037605;28;20029;-62
2022/05/14 08:14:58;;;;;;;5.28;1.80;;;16.60;64.10;;;;;;5037337;28;20036;-62
2022/05/14 08:17:23;;;;;;;5.07;1.92;;;16.60;64.50;;;;;;5037334;28;20021;-62
2022/05/14 08:19:49;;;;;;;4.45;1.70;;;16.70;64.70;;;;;;5037388;28;20029;-62
2022/05/14 08:24:59;;;;;;;4.38;1.73;;;16.90;64.40;;;;;;5037178;28;20041;-62
2022/05/14 08:27:25;;;;;;;6.68;1.63;;;17.00;64.20;;;;;;5037234;28;20029;-62
2022/05/14 08:29:51;;;;;;;5.45;1.85;;;17.10;64.30;;;;;;5037209;28;20473;-62
2022/05/14 08:32:21;;;;;;;4.05;1.70;;;17.20;65.00;;;;;;5037119;28;20486;-62
2022/05/14 08:34:49;;;;;;;4.15;1.95;;;17.30;64.60;;;;;;5037136;28;20029;-62
2022/05/14 08:37:14;;;;;;;6.65;1.80;;;17.50;63.70;;;;;;5037043;28;20029;-62
2022/05/14 08:39:40;;;;;;;5.95;1.98;;;17.50;62.70;;;;;;5037157;28;20029;-62
2022/05/14 08:42:11;;;;;;;4.75;1.73;;;17.60;62.30;;;;;;5039375;28;20073;-62
2022/05/14 08:44:39;;;;;;;6.60;2.08;;;17.70;63.30;;;;;;5041199;28;20121;-62
2022/05/14 08:47:07;;;;;;;3.55;1.83;;;17.70;63.20;;;;;;5041044;28;20489;-62
2022/05/14 08:49:42;;;;;;;4.25;2.00;;;17.80;63.30;;;;;;5040894;28;20033;-62
2022/05/14 08:52:22;;;;;;;5.90;1.90;;;17.90;63.10;;;;;;5041225;28;20064;-62
2022/05/14 08:54:56;;;;;;;3.20;1.70;;;18.00;63.20;;;;;;5041321;28;20037;-62
2022/05/14 08:57:35;;;;;;;5.90;1.87;;;18.10;62.80;;;;;;5041195;28;20024;-62
2022/05/14 09:00:02;;;;;;;4.28;1.90;;;18.20;62.40;;;;;;5040598;28;20037;-62
2022/05/14 09:02:34;;;;;;;2.95;1.75;;;18.20;61.50;;;;;;5041047;28;20034;-62
2022/05/14 09:05:16;;;;;;;3.88;1.90;;;18.30;62.50;;;;;;5040947;28;20100;-62
2022/05/14 09:07:43;;;;;;;5.90;2.05;;;18.40;63.10;;;;;;5040527;28;20113;-62
2022/05/14 09:10:19;;;;;;;2.65;1.70;;;18.50;63.00;;;;;;5040585;28;20022;-62
2022/05/14 09:12:52;;;;;;;6.75;2.10;;;18.70;63.00;;;;;;5040946;28;20095;-63
2022/05/14 09:15:18;;;;;;;5.15;1.90;;;18.80;63.30;;;;;;5041044;28;20025;-62
2022/05/14 09:17:44;;;;;;;3.97;1.92;;;19.00;61.00;;;;;;5040767;28;20030;-62
2022/05/14 09:20:21;;;;;;;4.07;1.70;;;19.10;61.30;;;;;;5040868;28;20033;-62
2022/05/14 09:22:53;;;;;;;4.38;2.10;;;19.20;61.80;;;;;;5040975;28;20025;-62
2022/05/14 09:25:36;;;;;;;3.42;1.70;;;19.30;61.60;;;;;;5040977;28;20024;-62
2022/05/14 09:28:12;;;;;;;5.78;2.05;;;19.50;60.00;;;;;;5040873;28;20057;-62
2022/05/14 09:30:41;;;;;;;5.95;2.03;;;19.70;61.50;;;;;;5040592;28;20029;-62
2022/05/14 09:33:20;;;;;;;4.25;2.03;;;19.90;61.60;;;;;;5040522;28;20017;-62
2022/05/14 09:35:55;;;;;;;7.32;2.10;;;20.10;61.00;;;;;;5040431;28;20381;-62
2022/05/14 09:38:23;;;;;;;3.65;1.98;;;20.40;59.60;;;;;;5039568;28;20025;-62
2022/05/14 09:40:50;;;;;;;3.35;1.73;;;20.60;60.60;;;;;;5040209;28;20017;-62
2022/05/14 09:43:16;;;;;;;4.47;2.00;;;20.90;60.80;;;;;;5039580;28;20021;-62
2022/05/14 09:45:55;;;;;;;5.60;2.10;;;21.30;60.10;;;;;;5039978;28;20384;-62
2022/05/14 09:48:22;;;;;;;3.75;2.10;;;21.60;58.50;;;;;;5039810;28;20025;-62
2022/05/14 09:50:58;;;;;;;6.32;2.10;;;22.00;60.10;;;;;;5038465;28;20025;-62
2022/05/14 09:53:32;;;;;;;3.30;2.00;;;22.40;57.90;;;;;;5038447;28;20037;-62
2022/05/14 09:56:09;;;;;;;;;;;22.50;56.80;;;;;;5040086;28;20068;-62
2022/05/14 09:58:56;;;;;;;3.38;1.92;;;22.70;57.80;;;;;;5039815;28;19909;-62
2022/05/14 10:01:28;;;;;;;5.35;1.83;;;22.90;57.50;;;;;;5039418;28;20347;-62
2022/05/14 10:04:14;;;;;;;6.90;2.55;;;23.10;54.10;;;;;;5040010;28;20017;-62
2022/05/14 10:07:10;;;;;;;5.70;2.20;;;23.50;57.60;;;;;;5039783;28;20029;-62
2022/05/14 10:09:52;;;;;;;5.55;2.05;;;24.10;50.70;;;;;;5039606;28;20056;-62
2022/05/14 10:12:42;;;;;;;5.95;2.40;;;24.20;55.00;;;;;;5039537;28;20026;-62
2022/05/14 10:15:30;;;;;;;5.30;2.10;;;24.30;56.70;;;;;;5039605;28;20021;-62
2022/05/14 10:18:06;;;;;;;5.65;2.50;;;24.50;50.00;;;;;;5039628;28;20036;-62
2022/05/14 10:20:38;;;;;;;6.93;2.72;;;24.60;54.90;;;;;;5039424;28;20021;-62
2022/05/14 10:26:46;;;;;;;6.25;2.35;;;24.90;47.70;;;;;;5039292;28;20052;-62
2022/05/14 10:29:39;;;;;;;6.53;2.42;;;25.30;54.30;;;;;;5039516;28;20032;-63
2022/05/14 10:32:12;;;;;;;5.75;2.08;;;25.70;53.40;;;;;;5039538;28;20469;-63
2022/05/14 10:34:46;;;;;;;5.40;2.35;;;25.90;50.60;;;;;;5039578;28;20075;-63
2022/05/14 10:37:23;;;;;;;;;;;26.00;51.70;;;;;;5039676;28;20029;-63
2022/05/14 10:39:58;;;;;;;5.30;2.25;;;26.20;50.50;;;;;;5039243;28;19904;-62
2022/05/14 10:42:46;;;;;;;6.32;2.45;;;26.30;52.00;;;;;;5039162;28;20029;-63
2022/05/14 10:45:20;;;;;;;4.13;1.75;;;26.50;53.90;;;;;;5038829;28;20100;-63
2022/05/14 10:47:55;;;;;;;5.07;2.17;;;26.40;48.40;;;;;;5038786;28;20029;-63
2022/05/14 10:50:21;;;;;;;6.10;2.88;;;26.50;49.40;;;;;;5038797;28;20051;-63
2022/05/14 10:52:50;;;;;;;4.25;2.10;;;26.50;48.70;;;;;;5038917;28;20412;-63
2022/05/14 10:55:20;;;;;;;6.38;2.10;;;26.30;44.40;;;;;;5038458;28;20049;-63
2022/05/14 10:57:53;;;;;;;5.05;2.42;;;26.20;46.90;;;;;;5038456;28;20037;-63
2022/05/14 11:00:31;;;;;;;6.00;2.40;;;25.90;44.20;;;;;;5038406;28;20069;-62
2022/05/14 11:03:22;;;;;;;6.22;2.25;;;25.60;43.40;;;;;;5038550;28;20371;-62
2022/05/14 11:06:09;;;;;;;5.65;2.20;;;25.40;47.60;;;;;;5037873;28;20037;-62
2022/05/14 11:08:41;;;;;;;3.55;1.95;;;25.40;46.00;;;;;;5038946;28;20037;-62
2022/05/14 11:11:18;;;;;;;6.38;2.30;;;25.40;46.90;;;;;;5038368;28;20026;-62
2022/05/14 11:14:08;;;;;;;6.05;2.35;;;25.20;47.70;;;;;;5038460;28;20053;-62
2022/05/14 11:16:44;;;;;;;4.95;2.42;;;25.20;48.20;;;;;;5038256;28;20425;-62
2022/05/14 11:19:23;;;;;;;4.95;2.15;;;25.30;48.10;;;;;;5038262;28;20034;-63
2022/05/14 11:21:50;;;;;;;5.35;2.53;;;25.50;47.50;;;;;;5038484;28;20026;-63
2022/05/14 11:24:16;;;;;;;5.30;2.35;;;25.80;46.10;;;;;;5038176;28;20486;-63
2022/05/14 11:26:50;;;;;;;5.88;2.60;;;26.00;46.10;;;;;;5038172;28;20079;-63
2022/05/14 11:29:23;;;;;;;6.97;2.63;;;26.10;45.40;;;;;;5037068;28;20033;-63
2022/05/14 11:32:12;;;;;;;4.65;2.10;;;26.10;46.70;;;;;;5038007;28;20075;-63
2022/05/14 11:34:49;;;;;;;8.60;2.88;;;26.00;46.40;;;;;;5037783;28;20033;-63
2022/05/14 11:37:32;;;;;;;4.18;2.40;;;26.10;45.60;;;;;;5037892;28;20030;-63
2022/05/14 11:40:18;;;;;;;7.28;2.67;;;26.20;46.70;;;;;;5037829;28;20021;-62
2022/05/14 11:42:46;;;;;;;5.35;2.30;;;26.20;47.60;;;;;;5037796;28;20045;-63
2022/05/14 11:45:14;;;;;;;5.22;2.20;;;26.20;44.10;;;;;;5037678;28;20080;-63
2022/05/14 11:48:19;;;;;;;6.85;2.63;;;26.20;46.90;;;;;;5037715;28;20117;-63
2022/05/14 11:50:50;;;;;;;6.82;2.50;;;26.50;44.90;;;;;;5036341;28;20039;-64
2022/05/14 11:53:24;;;;;;;3.85;2.47;;;26.70;45.40;;;;;;5037576;28;20029;-63
2022/05/14 11:55:59;;;;;;;6.35;2.20;;;26.80;44.00;;;;;;5037373;28;20057;-63
2022/05/14 11:58:31;;;;;;;7.25;2.60;;;27.10;42.70;;;;;;5037906;28;20049;-63
2022/05/14 12:00:59;;;;;;;5.63;2.80;;;27.20;45.70;;;;;;5036061;28;20108;-64
2022/05/14 12:03:37;;;;;;;6.55;2.60;;;27.40;44.90;;;;;;5037489;28;20088;-63
2022/05/14 12:06:31;;;;;;;5.00;2.50;;;27.40;41.70;;;;;;5037732;28;20113;-63
2022/05/14 12:09:03;;;;;;;;;;;27.40;45.00;;;;;;5038322;28;20096;-63
2022/05/14 12:11:35;;;;;;;5.03;2.53;;;27.40;43.50;;;;;;5037288;28;20328;-63
2022/05/14 12:14:11;;;;;;;4.75;2.50;;;27.60;44.70;;;;;;5037122;28;20033;-64
2022/05/14 12:16:39;;;;;;;6.13;2.35;;;27.90;43.80;;;;;;5036787;28;20026;-64
2022/05/14 12:19:19;;;;;;;4.80;2.40;;;27.90;41.30;;;;;;5036864;28;20029;-64
2022/05/14 12:21:51;;;;;;;6.38;3.05;;;27.90;45.10;;;;;;5037266;28;20026;-64
2022/05/14 12:24:24;;;;;;;6.38;2.50;;;28.00;44.30;;;;;;5037245;28;20025;-64
2022/05/14 12:26:50;;;;;;;6.07;2.70;;;28.10;42.70;;;;;;5037144;28;20025;-64
2022/05/14 12:29:28;;;;;;;3.92;2.53;;;27.90;42.10;;;;;;5037048;28;20032;-63
2022/05/14 12:34:51;;;;;;;5.35;2.45;;;27.20;43.30;;;;;;5037474;28;20080;-62
2022/05/14 12:37:40;;;;;;;6.00;2.60;;;26.90;44.00;;;;;;5037133;28;20022;-60
2022/05/14 12:40:17;;;;;;;4.57;2.33;;;27.20;44.70;;;;;;5037432;28;20025;-62
2022/05/14 12:42:44;;;;;;;5.90;2.95;;;27.50;45.30;;;;;;5037514;28;20025;-61
2022/05/14 12:45:11;;;;;;;7.07;2.72;;;28.00;42.40;;;;;;5036925;28;20034;-62
2022/05/14 12:47:37;;;;;;;8.68;2.92;;;28.20;42.80;;;;;;5037246;28;20076;-62
2022/05/14 12:50:18;;;;;;;5.10;2.78;;;28.30;41.50;;;;;;5036844;28;20040;-61
2022/05/14 12:52:57;;;;;;;9.80;3.05;;;28.10;39.80;;;;;;5036606;28;20456;-61
2022/05/14 12:55:25;;;;;;;5.55;2.83;;;27.50;41.20;;;;;;5036147;28;20053;-60
2022/05/14 12:57:52;;;;;;;5.20;2.97;;;26.90;43.30;;;;;;5035584;28;20026;-60
2022/05/14 13:00:20;;;;;;;6.65;2.63;;;26.60;43.70;;;;;;5037405;28;20029;-60
2022/05/14 13:03:04;;;;;;;5.45;2.70;;;26.70;45.20;;;;;;5037318;28;20032;-61
2022/05/14 13:05:38;;;;;;;5.07;2.38;;;27.30;46.20;;;;;;5037417;28;20030;-60
2022/05/14 13:08:14;;;;;;;5.40;2.65;;;27.60;42.70;;;;;;5037139;28;20108;-60
2022/05/14 13:10:52;;;;;;;7.35;3.03;;;27.40;41.70;;;;;;5035210;28;20086;-60
2022/05/14 13:13:28;;;;;;;4.13;2.63;;;27.20;43.50;;;;;;5035117;28;20054;-60
2022/05/14 13:15:55;;;;;;;7.43;3.05;;;27.00;42.50;;;;;;5036252;28;20030;-60
2022/05/14 13:18:23;;;;;;;7.25;2.85;;;27.20;43.90;;;;;;5036652;28;20033;-59
2022/05/14 13:21:04;;;;;;;6.40;2.78;;;27.30;44.00;;;;;;5036706;28;20083;-59
2022/05/14 13:23:30;;;;;;;8.23;3.60;;;27.60;44.80;;;;;;5036703;28;20577;-60
2022/05/14 13:26:23;;;;;;;5.90;2.70;;;27.70;42.60;;;;;;5037254;28;20021;-60